createdAt,value
2018-09-01T00:00:09.714Z,72.79
2018-09-01T00:05:13.563Z,73.60
2018-09-01T00:10:17.102Z,74.33
2018-09-01T00:15:20.689Z,74.30
2018-09-01T00:20:24.278Z,75.32
2018-09-01T00:25:27.809Z,75.22
2018-09-01T00:30:31.584Z,76.58
2018-09-01T00:35:35.410Z,78.41
2018-09-01T00:40:39.035Z,78.69
2018-09-01T00:45:43.253Z,79.78
2018-09-01T00:50:46.838Z,79.21
2018-09-01T00:55:51.403Z,80.52
2018-09-01T01:00:54.996Z,80.50
2018-09-01T01:05:58.674Z,82.29
2018-09-01T01:11:02.241Z,83.58
2018-09-01T01:16:15.718Z,84.61
2018-09-01T01:21:19.312Z,85.17
2018-09-01T01:26:23.003Z,85.95
2018-09-01T01:31:26.856Z,85.53
2018-09-01T01:36:30.654Z,86.83
2018-09-01T01:41:34.341Z,87.18
2018-09-01T01:46:37.931Z,86.39
2018-09-01T01:51:41.614Z,87.29
2018-09-01T01:56:46.386Z,86.97
2018-09-01T02:01:50.205Z,87.86
2018-09-01T02:06:54.044Z,88.27
2018-09-01T02:11:58.212Z,88.86
2018-09-01T02:17:02.051Z,90.36
2018-09-01T02:22:05.818Z,90.63
2018-09-01T02:27:09.582Z,90.55
2018-09-01T02:32:13.892Z,90.22
2018-09-01T02:37:17.570Z,90.58
2018-09-01T02:42:21.158Z,91.53
2018-09-01T02:47:24.727Z,91.57
2018-09-01T02:52:28.700Z,92.08
2018-09-01T02:57:32.398Z,91.57
2018-09-01T03:02:41.279Z,91.80
2018-09-01T03:07:44.961Z,92.25
2018-09-01T03:12:49.465Z,91.59
2018-09-01T03:17:53.030Z,91.12
2018-09-01T03:23:04.624Z,91.95
2018-09-01T03:28:08.182Z,92.12
2018-09-01T03:33:11.801Z,92.34
2018-09-01T03:38:15.333Z,91.67
2018-09-01T03:43:18.893Z,92.29
2018-09-01T03:48:22.426Z,92.74
2018-09-01T03:53:26.283Z,94.17
2018-09-01T03:58:29.897Z,93.70
2018-09-01T04:03:33.498Z,93.98
2018-09-01T04:08:37.158Z,94.39
2018-09-01T04:13:40.752Z,94.39
2018-09-01T04:18:44.707Z,94.99
2018-09-01T04:23:48.267Z,94.00
2018-09-01T04:28:52.307Z,94.33
2018-09-01T04:33:56.388Z,94.94
2018-09-01T04:38:59.963Z,94.31
2018-09-01T04:44:03.638Z,94.57
2018-09-01T04:49:07.181Z,95.08
2018-09-01T04:54:10.754Z,94.46
2018-09-01T04:59:14.262Z,94.66
2018-09-01T05:04:18.613Z,93.72
2018-09-01T05:09:22.282Z,92.90
2018-09-01T05:14:25.884Z,91.24
2018-09-01T05:19:30.219Z,91.98
2018-09-01T05:24:34.182Z,91.85
2018-09-01T05:29:37.724Z,93.24
2018-09-01T05:34:41.452Z,93.76
2018-09-01T05:39:45.123Z,98.09
2018-09-01T05:44:48.728Z,99.35
2018-09-01T05:49:52.941Z,97.43
2018-09-01T05:54:57.214Z,93.17
2018-09-01T06:00:00.758Z,91.58
2018-09-01T06:05:04.987Z,90.28
2018-09-01T06:10:08.483Z,89.29
2018-09-01T06:15:12.229Z,88.88
2018-09-01T06:20:15.857Z,85.56
2018-09-01T06:25:19.433Z,84.64
2018-09-01T06:30:31.850Z,82.06
2018-09-01T06:35:35.482Z,81.00
2018-09-01T06:40:39.156Z,80.06
2018-09-01T06:45:43.148Z,79.79
2018-09-01T06:50:47.236Z,77.40
2018-09-01T06:55:51.506Z,76.67
2018-09-01T07:00:55.031Z,76.04
2018-09-01T07:06:04.574Z,72.82
2018-09-01T07:11:08.253Z,72.23
2018-09-01T07:16:11.996Z,70.35
2018-09-01T07:21:15.717Z,68.45
2018-09-01T07:26:19.475Z,70.09
2018-09-01T07:31:23.516Z,68.13
2018-09-01T07:36:26.790Z,67.13
2018-09-01T07:41:30.940Z,69.61
2018-09-01T07:46:35.454Z,67.38
2018-09-01T07:51:39.184Z,68.82
2018-09-01T07:56:43.211Z,66.84
2018-09-01T08:01:46.724Z,66.83
2018-09-01T08:06:50.266Z,64.52
2018-09-01T08:11:53.896Z,64.34
2018-09-01T08:16:57.868Z,65.12
2018-09-01T08:22:02.470Z,64.33
2018-09-01T08:27:06.017Z,63.92
2018-09-01T08:32:09.598Z,61.48
2018-09-01T08:37:13.419Z,62.85
2018-09-01T08:42:23.075Z,63.94
2018-09-01T08:47:27.192Z,60.43
2018-09-01T08:52:30.898Z,60.07
2018-09-01T08:57:34.782Z,59.47
2018-09-01T09:02:39.382Z,57.64
2018-09-01T09:07:42.947Z,55.86
2018-09-01T09:12:47.036Z,58.09
2018-09-01T09:17:54.573Z,55.03
2018-09-01T09:23:03.654Z,55.44
2018-09-01T09:28:10.241Z,57.02
2018-09-01T09:33:17.340Z,56.44
2018-09-01T09:38:23.983Z,53.75
2018-09-01T09:43:30.782Z,51.07
2018-09-01T09:48:37.129Z,50.87
2018-09-01T09:53:40.736Z,50.59
2018-09-01T09:58:44.292Z,50.71
2018-09-01T10:03:48.190Z,50.40
2018-09-01T10:08:52.184Z,48.69
2018-09-01T10:13:55.928Z,47.89
2018-09-01T10:18:59.479Z,48.96
2018-09-01T10:24:03.301Z,50.82
2018-09-01T10:29:06.997Z,49.35
2018-09-01T10:34:10.627Z,50.75
2018-09-01T10:39:14.317Z,51.92
2018-09-01T10:44:18.869Z,52.61
2018-09-01T10:49:22.515Z,53.55
2018-09-01T10:54:26.096Z,52.72
2018-09-01T10:59:29.737Z,52.53
2018-09-01T11:04:33.210Z,49.27
2018-09-01T11:09:36.835Z,47.95
2018-09-01T11:14:40.681Z,50.64
2018-09-01T11:19:44.571Z,51.57
2018-09-01T11:24:48.214Z,48.29
2018-09-01T11:29:51.785Z,48.63
2018-09-01T11:34:56.265Z,47.17
2018-09-01T11:39:59.849Z,47.54
2018-09-01T11:45:03.713Z,47.10
2018-09-01T11:50:07.221Z,49.77
2018-09-01T11:55:11.473Z,48.52
2018-09-01T12:00:21.384Z,48.02
2018-09-01T12:05:25.752Z,48.43
2018-09-01T12:10:29.365Z,48.97
2018-09-01T12:15:33.064Z,48.67
2018-09-01T12:20:36.660Z,45.71
2018-09-01T12:25:40.204Z,45.37
2018-09-01T12:30:43.853Z,44.39
2018-09-01T12:35:47.627Z,42.54
2018-09-01T12:40:51.135Z,43.50
2018-09-01T12:45:54.689Z,45.64
2018-09-01T12:50:58.296Z,44.82
2018-09-01T12:56:03.130Z,45.91
2018-09-01T13:01:07.151Z,46.62
2018-09-01T13:06:11.377Z,45.70
2018-09-01T13:11:15.011Z,45.06
2018-09-01T13:16:19.049Z,42.50
2018-09-01T13:21:22.698Z,43.01
2018-09-01T13:26:26.636Z,44.69
2018-09-01T13:31:30.969Z,45.55
2018-09-01T13:36:34.591Z,43.43
2018-09-01T13:41:38.387Z,43.09
2018-09-01T13:46:42.043Z,41.52
2018-09-01T13:51:45.570Z,45.13
2018-09-01T13:56:49.523Z,44.20
2018-09-01T14:01:53.032Z,44.03
2018-09-01T14:06:58.577Z,42.06
2018-09-01T14:12:02.845Z,41.93
2018-09-01T14:17:07.063Z,41.59
2018-09-01T14:22:10.567Z,41.96
2018-09-01T14:27:14.801Z,42.76
2018-09-01T14:32:18.312Z,42.74
2018-09-01T14:37:21.933Z,40.93
2018-09-01T14:42:25.416Z,43.34
2018-09-01T14:47:29.135Z,42.98
2018-09-01T14:52:32.648Z,42.18
2018-09-01T14:57:36.197Z,45.67
2018-09-01T15:02:39.667Z,47.85
2018-09-01T15:07:43.245Z,47.10
2018-09-01T15:12:46.836Z,46.36
2018-09-01T15:17:50.416Z,44.44
2018-09-01T15:22:54.102Z,43.98
2018-09-01T15:27:57.669Z,43.69
2018-09-01T15:33:02.145Z,45.42
2018-09-01T15:38:05.918Z,45.04
2018-09-01T15:43:09.489Z,43.71
2018-09-01T15:48:13.506Z,43.48
2018-09-01T15:53:17.222Z,43.55
2018-09-01T15:58:20.782Z,42.71
2018-09-01T16:03:24.494Z,44.60
2018-09-01T16:08:28.106Z,44.61
2018-09-01T16:13:31.915Z,44.33
2018-09-01T16:40:28.072Z,48.80
2018-09-01T16:45:31.686Z,50.32
2018-09-01T16:50:35.297Z,49.86
2018-09-01T16:55:38.859Z,51.92
2018-09-01T17:00:42.562Z,50.10
2018-09-01T17:05:46.025Z,49.67
2018-09-01T17:10:49.617Z,50.30
2018-09-01T17:15:53.669Z,51.67
2018-09-01T17:20:57.192Z,50.64
2018-09-01T17:26:00.767Z,50.63
2018-09-01T17:31:04.603Z,52.58
2018-09-01T17:36:08.137Z,52.65
2018-09-01T17:41:11.825Z,53.78
2018-09-01T17:46:16.807Z,56.63
2018-09-01T17:51:20.461Z,56.07
2018-09-01T17:56:24.704Z,56.57
2018-09-01T18:01:28.716Z,57.95
2018-09-01T18:06:32.285Z,58.59
2018-09-01T18:11:35.867Z,59.20
2018-09-01T18:16:39.751Z,58.61
2018-09-01T18:21:43.291Z,61.02
2018-09-01T18:26:46.781Z,61.04
2018-09-01T18:31:51.202Z,61.94
2018-09-01T18:36:55.087Z,64.23
2018-09-01T18:41:58.999Z,65.09
2018-09-01T18:47:02.947Z,64.61
2018-09-01T18:52:06.971Z,66.04
2018-09-01T18:57:10.889Z,68.16
2018-09-01T19:02:15.348Z,67.99
2018-09-01T19:07:18.915Z,68.37
2018-09-01T19:12:22.799Z,69.01
2018-09-01T19:17:26.348Z,69.74
2018-09-01T19:22:37.164Z,70.59
2018-09-01T19:27:40.669Z,70.23
2018-09-01T19:32:44.465Z,71.48
2018-09-01T19:37:47.944Z,71.47
2018-09-01T19:42:52.016Z,72.61
2018-09-01T19:47:55.457Z,71.87
2018-09-01T19:53:00.203Z,71.77
2018-09-01T19:58:03.742Z,73.42
2018-09-01T20:03:07.506Z,73.34
2018-09-01T20:08:11.642Z,74.00
2018-09-01T20:13:15.398Z,74.68
2018-09-01T20:18:18.905Z,74.38
2018-09-01T20:23:22.465Z,74.32
2018-09-01T20:28:26.870Z,74.56
2018-09-01T20:33:30.695Z,75.19
2018-09-01T20:38:34.209Z,75.41
2018-09-01T20:43:37.784Z,77.41
2018-09-01T20:48:41.267Z,76.98
2018-09-01T20:53:44.980Z,77.14
2018-09-01T20:58:48.617Z,77.33
2018-09-01T21:03:52.849Z,76.82
2018-09-01T21:08:56.393Z,77.19
2018-09-01T21:14:00.082Z,78.32
2018-09-01T21:19:03.549Z,78.52
2018-09-01T21:24:07.297Z,79.08
2018-09-01T21:29:11.338Z,79.09
2018-09-01T21:34:14.999Z,78.99
2018-09-01T21:39:18.894Z,80.24
2018-09-01T21:44:22.701Z,81.17
2018-09-01T21:49:26.313Z,81.45
2018-09-01T21:54:29.987Z,81.65
2018-09-01T21:59:34.858Z,82.00
2018-09-01T22:04:43.901Z,81.62
2018-09-01T22:09:47.718Z,81.81
2018-09-01T22:14:52.655Z,81.80
2018-09-01T22:19:56.182Z,81.94
2018-09-01T22:24:59.786Z,81.57
2018-09-01T22:30:17.340Z,80.50
2018-09-01T22:35:20.889Z,82.06
2018-09-01T22:40:24.707Z,81.42
2018-09-01T22:45:28.754Z,81.55
2018-09-01T22:50:32.714Z,81.58
2018-09-01T22:55:36.178Z,80.56
2018-09-01T23:00:39.707Z,81.03
2018-09-01T23:05:43.319Z,80.61
2018-09-01T23:10:46.914Z,79.60
2018-09-01T23:15:50.578Z,79.91
2018-09-01T23:20:54.545Z,79.21
2018-09-01T23:25:58.008Z,80.23
2018-09-01T23:31:01.574Z,80.16
2018-09-01T23:36:05.139Z,80.99
2018-09-01T23:41:08.954Z,80.07
2018-09-01T23:46:12.893Z,81.29
2018-09-01T23:51:16.409Z,81.39
2018-09-01T23:56:20.380Z,80.94
